sensor_id;sensor_type;location;lat;lon;timestamp;pressure;altitude;pressure_sealevel;temperature;humidity
23733;BME280;12047;53.450;-2.286;2023-05-19T00:03:32;102537.00;;;18.84;100.00
23733;BME280;12047;53.450;-2.286;2023-05-19T00:08:33;102532.84;;;19.54;99.68
23733;BME280;12047;53.450;-2.286;2023-05-19T00:13:34;102536.22;;;19.01;99.24
23733;BME280;12047;53.450;-2.286;2023-05-19T00:18:35;102536.13;;;19.21;99.75
23733;BME280;12047;53.450;-2.286;2023-05-19T00:23:35;102538.09;;;19.46;97.52
23733;BME280;12047;53.450;-2.286;2023-05-19T00:28:35;102533.00;;;19.43;96.87
23733;BME280;12047;53.450;-2.286;2023-05-19T00:33:36;102537.69;;;19.41;97.83
23733;BME280;12047;53.450;-2.286;2023-05-19T00:38:37;102527.63;;;19.25;97.84
23733;BME280;12047;53.450;-2.286;2023-05-19T00:43:37;102531.44;;;19.23;98.18
23733;BME280;12047;53.450;-2.286;2023-05-19T00:48:38;102522.94;;;19.27;98.58
23733;BME280;12047;53.450;-2.286;2023-05-19T00:53:39;102533.91;;;19.34;99.41
23733;BME280;12047;53.450;-2.286;2023-05-19T00:58:40;102518.41;;;19.46;99.84
23733;BME280;12047;53.450;-2.286;2023-05-19T01:03:40;102522.25;;;19.25;100.00
23733;BME280;12047;53.450;-2.286;2023-05-19T01:08:42;102523.09;;;18.98;100.00
23733;BME280;12047;53.450;-2.286;2023-05-19T01:13:43;102517.91;;;19.15;100.00
23733;BME280;12047;53.450;-2.286;2023-05-19T01:24:37;102517.50;;;18.82;100.00
23733;BME280;12047;53.450;-2.286;2023-05-19T01:34:45;102522.94;;;18.63;100.00
23733;BME280;12047;53.450;-2.286;2023-05-19T01:39:49;102522.66;;;18.56;100.00
23733;BME280;12047;53.450;-2.286;2023-05-19T01:44:50;102517.75;;;18.52;100.00
23733;BME280;12047;53.450;-2.286;2023-05-19T01:49:53;102514.22;;;18.42;100.00
23733;BME280;12047;53.450;-2.286;2023-05-19T01:54:54;102503.91;;;18.47;100.00
23733;BME280;12047;53.450;-2.286;2023-05-19T02:00:09;102514.66;;;18.47;100.00
23733;BME280;12047;53.450;-2.286;2023-05-19T02:05:12;102520.84;;;17.81;100.00
23733;BME280;12047;53.450;-2.286;2023-05-19T02:10:26;102513.56;;;18.30;100.00
23733;BME280;12047;53.450;-2.286;2023-05-19T02:15:38;102525.16;;;18.21;100.00
23733;BME280;12047;53.450;-2.286;2023-05-19T02:20:39;102532.22;;;18.12;100.00
23733;BME280;12047;53.450;-2.286;2023-05-19T02:25:40;102525.31;;;18.19;100.00
23733;BME280;12047;53.450;-2.286;2023-05-19T02:30:40;102523.13;;;18.32;100.00
23733;BME280;12047;53.450;-2.286;2023-05-19T02:35:41;102520.78;;;18.10;100.00
23733;BME280;12047;53.450;-2.286;2023-05-19T02:40:41;102513.34;;;18.04;100.00
23733;BME280;12047;53.450;-2.286;2023-05-19T02:45:41;102510.91;;;17.82;100.00
23733;BME280;12047;53.450;-2.286;2023-05-19T02:50:42;102504.00;;;17.89;100.00
23733;BME280;12047;53.450;-2.286;2023-05-19T02:55:42;102510.09;;;17.72;100.00
23733;BME280;12047;53.450;-2.286;2023-05-19T03:00:43;102515.72;;;17.68;100.00
23733;BME280;12047;53.450;-2.286;2023-05-19T03:05:44;102501.88;;;17.63;100.00
23733;BME280;12047;53.450;-2.286;2023-05-19T03:10:45;102491.44;;;17.89;100.00
23733;BME280;12047;53.450;-2.286;2023-05-19T03:15:46;102493.72;;;17.94;100.00
23733;BME280;12047;53.450;-2.286;2023-05-19T03:20:46;102472.25;;;17.55;100.00
23733;BME280;12047;53.450;-2.286;2023-05-19T03:25:47;102458.56;;;17.97;100.00
23733;BME280;12047;53.450;-2.286;2023-05-19T03:30:47;102466.78;;;17.76;100.00
23733;BME280;12047;53.450;-2.286;2023-05-19T03:35:49;102468.16;;;17.32;100.00
23733;BME280;12047;53.450;-2.286;2023-05-19T03:40:52;102476.59;;;17.37;100.00
23733;BME280;12047;53.450;-2.286;2023-05-19T03:45:52;102465.47;;;17.32;100.00
23733;BME280;12047;53.450;-2.286;2023-05-19T03:50:53;102466.00;;;17.35;100.00
23733;BME280;12047;53.450;-2.286;2023-05-19T03:55:54;102478.88;;;17.32;100.00
23733;BME280;12047;53.450;-2.286;2023-05-19T04:00:55;102471.94;;;17.39;100.00
23733;BME280;12047;53.450;-2.286;2023-05-19T04:05:56;102463.34;;;17.26;100.00
23733;BME280;12047;53.450;-2.286;2023-05-19T04:10:56;102472.97;;;16.88;100.00
23733;BME280;12047;53.450;-2.286;2023-05-19T04:15:57;102470.88;;;17.80;100.00
23733;BME280;12047;53.450;-2.286;2023-05-19T04:20:57;102480.00;;;17.49;100.00
23733;BME280;12047;53.450;-2.286;2023-05-19T04:25:58;102481.16;;;17.56;100.00
23733;BME280;12047;53.450;-2.286;2023-05-19T04:31:00;102485.81;;;17.73;100.00
23733;BME280;12047;53.450;-2.286;2023-05-19T04:36:01;102482.41;;;17.90;100.00
23733;BME280;12047;53.450;-2.286;2023-05-19T04:41:05;102486.91;;;17.32;100.00
23733;BME280;12047;53.450;-2.286;2023-05-19T04:46:10;102483.53;;;17.88;100.00
23733;BME280;12047;53.450;-2.286;2023-05-19T04:51:10;102491.16;;;18.02;100.00
23733;BME280;12047;53.450;-2.286;2023-05-19T04:56:13;102498.50;;;18.00;100.00
23733;BME280;12047;53.450;-2.286;2023-05-19T05:01:14;102486.31;;;18.25;100.00
23733;BME280;12047;53.450;-2.286;2023-05-19T05:06:15;102488.22;;;18.52;100.00
23733;BME280;12047;53.450;-2.286;2023-05-19T05:11:16;102489.00;;;18.25;100.00
23733;BME280;12047;53.450;-2.286;2023-05-19T05:16:17;102494.53;;;18.70;100.00
23733;BME280;12047;53.450;-2.286;2023-05-19T05:21:17;102496.34;;;18.79;100.00
23733;BME280;12047;53.450;-2.286;2023-05-19T05:26:21;102508.09;;;18.59;100.00
23733;BME280;12047;53.450;-2.286;2023-05-19T05:31:23;102501.09;;;18.85;100.00
23733;BME280;12047;53.450;-2.286;2023-05-19T05:36:23;102503.63;;;18.87;100.00
23733;BME280;12047;53.450;-2.286;2023-05-19T05:41:24;102504.19;;;18.90;100.00
23733;BME280;12047;53.450;-2.286;2023-05-19T05:46:26;102513.94;;;18.91;100.00
23733;BME280;12047;53.450;-2.286;2023-05-19T05:51:27;102517.47;;;18.92;100.00
23733;BME280;12047;53.450;-2.286;2023-05-19T05:56:27;102520.56;;;18.97;100.00
23733;BME280;12047;53.450;-2.286;2023-05-19T06:01:28;102528.22;;;18.92;100.00
23733;BME280;12047;53.450;-2.286;2023-05-19T06:06:30;102520.34;;;19.08;100.00
23733;BME280;12047;53.450;-2.286;2023-05-19T06:11:31;102531.91;;;18.34;100.00
23733;BME280;12047;53.450;-2.286;2023-05-19T06:16:31;102520.31;;;18.44;100.00
23733;BME280;12047;53.450;-2.286;2023-05-19T06:21:34;102522.19;;;18.14;100.00
23733;BME280;12047;53.450;-2.286;2023-05-19T06:26:35;102514.16;;;18.24;100.00
23733;BME280;12047;53.450;-2.286;2023-05-19T06:31:35;102522.47;;;18.11;100.00
23733;BME280;12047;53.450;-2.286;2023-05-19T06:36:36;102520.22;;;18.16;100.00
23733;BME280;12047;53.450;-2.286;2023-05-19T06:41:36;102521.84;;;18.56;100.00
23733;BME280;12047;53.450;-2.286;2023-05-19T06:46:37;102514.59;;;18.66;100.00
23733;BME280;12047;53.450;-2.286;2023-05-19T06:51:38;102520.63;;;18.21;100.00
23733;BME280;12047;53.450;-2.286;2023-05-19T06:56:38;102520.25;;;18.73;100.00
23733;BME280;12047;53.450;-2.286;2023-05-19T07:01:39;102517.63;;;18.44;100.00
23733;BME280;12047;53.450;-2.286;2023-05-19T07:06:39;102528.66;;;18.41;100.00
23733;BME280;12047;53.450;-2.286;2023-05-19T07:11:39;102534.72;;;18.89;100.00
23733;BME280;12047;53.450;-2.286;2023-05-19T07:16:40;102541.50;;;18.93;100.00
23733;BME280;12047;53.450;-2.286;2023-05-19T07:21:40;102535.53;;;19.27;100.00
23733;BME280;12047;53.450;-2.286;2023-05-19T07:26:41;102546.75;;;19.13;100.00
23733;BME280;12047;53.450;-2.286;2023-05-19T07:31:42;102554.09;;;19.20;100.00
23733;BME280;12047;53.450;-2.286;2023-05-19T07:36:43;102553.41;;;19.36;100.00
23733;BME280;12047;53.450;-2.286;2023-05-19T07:41:43;102554.22;;;18.91;100.00
23733;BME280;12047;53.450;-2.286;2023-05-19T07:46:44;102560.59;;;18.90;100.00
23733;BME280;12047;53.450;-2.286;2023-05-19T07:51:44;102569.25;;;19.12;100.00
23733;BME280;12047;53.450;-2.286;2023-05-19T07:56:45;102562.28;;;18.91;100.00
23733;BME280;12047;53.450;-2.286;2023-05-19T08:01:46;102562.00;;;18.94;100.00
23733;BME280;12047;53.450;-2.286;2023-05-19T08:06:46;102559.78;;;19.08;100.00
23733;BME280;12047;53.450;-2.286;2023-05-19T08:11:47;102563.25;;;19.55;100.00
23733;BME280;12047;53.450;-2.286;2023-05-19T08:16:48;102563.44;;;19.16;100.00
23733;BME280;12047;53.450;-2.286;2023-05-19T08:21:49;102560.59;;;19.18;100.00
23733;BME280;12047;53.450;-2.286;2023-05-19T08:26:49;102565.72;;;19.11;100.00
23733;BME280;12047;53.450;-2.286;2023-05-19T08:31:50;102554.84;;;19.30;100.00
23733;BME280;12047;53.450;-2.286;2023-05-19T08:36:52;102557.50;;;19.40;100.00
23733;BME280;12047;53.450;-2.286;2023-05-19T08:41:56;102554.09;;;19.65;100.00
23733;BME280;12047;53.450;-2.286;2023-05-19T08:47:00;102548.13;;;19.54;100.00
23733;BME280;12047;53.450;-2.286;2023-05-19T08:52:11;102548.16;;;19.44;100.00
23733;BME280;12047;53.450;-2.286;2023-05-19T08:57:14;102545.59;;;18.97;100.00
23733;BME280;12047;53.450;-2.286;2023-05-19T09:02:15;102549.38;;;19.50;100.00
23733;BME280;12047;53.450;-2.286;2023-05-19T09:07:17;102540.13;;;19.34;100.00
23733;BME280;12047;53.450;-2.286;2023-05-19T09:12:19;102540.22;;;18.97;100.00
23733;BME280;12047;53.450;-2.286;2023-05-19T09:17:22;102548.97;;;19.54;100.00
23733;BME280;12047;53.450;-2.286;2023-05-19T09:22:22;102539.97;;;19.36;100.00
23733;BME280;12047;53.450;-2.286;2023-05-19T09:27:24;102535.75;;;19.96;100.00
23733;BME280;12047;53.450;-2.286;2023-05-19T09:32:26;102530.56;;;18.58;100.00
23733;BME280;12047;53.450;-2.286;2023-05-19T09:37:28;102530.94;;;20.08;100.00
23733;BME280;12047;53.450;-2.286;2023-05-19T09:42:28;102533.81;;;20.50;100.00
23733;BME280;12047;53.450;-2.286;2023-05-19T09:47:36;102540.72;;;20.79;100.00
23733;BME280;12047;53.450;-2.286;2023-05-19T09:52:43;102537.44;;;21.43;100.00
23733;BME280;12047;53.450;-2.286;2023-05-19T09:57:43;102527.84;;;21.06;100.00
23733;BME280;12047;53.450;-2.286;2023-05-19T10:02:48;102530.53;;;21.57;100.00
23733;BME280;12047;53.450;-2.286;2023-05-19T10:07:50;102517.00;;;21.32;100.00
23733;BME280;12047;53.450;-2.286;2023-05-19T10:12:53;102512.81;;;22.52;100.00
23733;BME280;12047;53.450;-2.286;2023-05-19T10:17:53;102510.50;;;22.08;100.00
23733;BME280;12047;53.450;-2.286;2023-05-19T10:22:56;102514.22;;;21.16;100.00
23733;BME280;12047;53.450;-2.286;2023-05-19T10:28:01;102517.91;;;22.38;100.00
23733;BME280;12047;53.450;-2.286;2023-05-19T10:33:03;102516.63;;;22.02;100.00
23733;BME280;12047;53.450;-2.286;2023-05-19T10:38:32;102517.56;;;21.10;100.00
23733;BME280;12047;53.450;-2.286;2023-05-19T10:48:57;102515.53;;;22.35;100.00
23733;BME280;12047;53.450;-2.286;2023-05-19T10:54:02;102508.78;;;23.57;100.00
23733;BME280;12047;53.450;-2.286;2023-05-19T11:05:15;102497.66;;;22.34;100.00
23733;BME280;12047;53.450;-2.286;2023-05-19T11:10:27;102502.94;;;23.45;100.00
23733;BME280;12047;53.450;-2.286;2023-05-19T11:21:08;102513.56;;;23.47;100.00
23733;BME280;12047;53.450;-2.286;2023-05-19T11:26:09;102508.38;;;23.37;100.00
23733;BME280;12047;53.450;-2.286;2023-05-19T11:31:10;102501.56;;;22.16;100.00
23733;BME280;12047;53.450;-2.286;2023-05-19T11:36:11;102510.13;;;22.44;100.00
23733;BME280;12047;53.450;-2.286;2023-05-19T11:41:14;102498.53;;;22.82;100.00
23733;BME280;12047;53.450;-2.286;2023-05-19T11:46:15;102504.41;;;21.82;100.00
23733;BME280;12047;53.450;-2.286;2023-05-19T11:51:20;102505.78;;;22.10;100.00
23733;BME280;12047;53.450;-2.286;2023-05-19T11:56:20;102504.78;;;23.22;100.00
23733;BME280;12047;53.450;-2.286;2023-05-19T12:01:23;102497.41;;;23.07;100.00
23733;BME280;12047;53.450;-2.286;2023-05-19T12:06:26;102502.19;;;23.51;100.00
23733;BME280;12047;53.450;-2.286;2023-05-19T12:11:27;102501.88;;;23.54;100.00
23733;BME280;12047;53.450;-2.286;2023-05-19T12:16:34;102499.38;;;23.45;100.00
23733;BME280;12047;53.450;-2.286;2023-05-19T12:21:35;102503.34;;;23.34;100.00
23733;BME280;12047;53.450;-2.286;2023-05-19T12:26:39;102482.22;;;22.59;100.00
23733;BME280;12047;53.450;-2.286;2023-05-19T12:31:45;102481.66;;;22.80;100.00
23733;BME280;12047;53.450;-2.286;2023-05-19T12:36:46;102488.19;;;23.25;100.00
23733;BME280;12047;53.450;-2.286;2023-05-19T12:41:46;102491.72;;;23.56;100.00
23733;BME280;12047;53.450;-2.286;2023-05-19T12:46:50;102487.41;;;23.39;100.00
23733;BME280;12047;53.450;-2.286;2023-05-19T12:51:52;102492.69;;;23.63;100.00
23733;BME280;12047;53.450;-2.286;2023-05-19T12:56:53;102491.22;;;23.53;100.00
23733;BME280;12047;53.450;-2.286;2023-05-19T13:01:57;102481.59;;;24.11;100.00
23733;BME280;12047;53.450;-2.286;2023-05-19T13:06:58;102479.09;;;22.87;100.00
23733;BME280;12047;53.450;-2.286;2023-05-19T13:11:59;102475.88;;;23.91;100.00
23733;BME280;12047;53.450;-2.286;2023-05-19T13:17:02;102475.69;;;24.45;100.00
23733;BME280;12047;53.450;-2.286;2023-05-19T13:22:03;102466.97;;;24.34;100.00
23733;BME280;12047;53.450;-2.286;2023-05-19T13:27:03;102460.75;;;24.99;100.00
23733;BME280;12047;53.450;-2.286;2023-05-19T13:32:05;102459.66;;;25.30;100.00
23733;BME280;12047;53.450;-2.286;2023-05-19T13:37:05;102461.59;;;23.97;100.00
23733;BME280;12047;53.450;-2.286;2023-05-19T13:42:08;102467.69;;;23.99;100.00
23733;BME280;12047;53.450;-2.286;2023-05-19T13:47:09;102466.47;;;23.33;100.00
23733;BME280;12047;53.450;-2.286;2023-05-19T13:52:10;102459.22;;;23.79;100.00
23733;BME280;12047;53.450;-2.286;2023-05-19T13:57:13;102452.59;;;23.13;100.00
23733;BME280;12047;53.450;-2.286;2023-05-19T14:02:13;102450.19;;;23.87;100.00
23733;BME280;12047;53.450;-2.286;2023-05-19T14:07:14;102454.72;;;23.71;100.00
23733;BME280;12047;53.450;-2.286;2023-05-19T14:12:15;102456.63;;;24.00;100.00
23733;BME280;12047;53.450;-2.286;2023-05-19T14:17:16;102460.31;;;23.47;100.00
23733;BME280;12047;53.450;-2.286;2023-05-19T14:22:16;102456.63;;;23.86;100.00
23733;BME280;12047;53.450;-2.286;2023-05-19T14:27:18;102455.13;;;23.83;100.00
23733;BME280;12047;53.450;-2.286;2023-05-19T14:32:20;102461.28;;;23.54;100.00
23733;BME280;12047;53.450;-2.286;2023-05-19T14:37:21;102461.31;;;23.23;100.00
23733;BME280;12047;53.450;-2.286;2023-05-19T14:42:21;102458.75;;;23.76;100.00
23733;BME280;12047;53.450;-2.286;2023-05-19T14:47:22;102459.47;;;23.47;100.00
23733;BME280;12047;53.450;-2.286;2023-05-19T14:52:25;102454.09;;;23.84;100.00
23733;BME280;12047;53.450;-2.286;2023-05-19T14:57:27;102453.75;;;24.25;100.00
23733;BME280;12047;53.450;-2.286;2023-05-19T15:02:27;102445.84;;;24.59;98.93
23733;BME280;12047;53.450;-2.286;2023-05-19T15:07:27;102443.91;;;24.38;97.89
23733;BME280;12047;53.450;-2.286;2023-05-19T15:12:28;102442.97;;;25.33;96.03
23733;BME280;12047;53.450;-2.286;2023-05-19T15:17:29;102450.00;;;24.91;96.79
23733;BME280;12047;53.450;-2.286;2023-05-19T15:22:33;102448.75;;;24.28;94.24
23733;BME280;12047;53.450;-2.286;2023-05-19T15:27:40;102444.03;;;24.81;93.04
23733;BME280;12047;53.450;-2.286;2023-05-19T15:32:43;102447.75;;;24.44;93.91
23733;BME280;12047;53.450;-2.286;2023-05-19T15:37:43;102455.06;;;25.30;95.13
23733;BME280;12047;53.450;-2.286;2023-05-19T15:42:44;102456.88;;;24.28;97.15
23733;BME280;12047;53.450;-2.286;2023-05-19T15:47:45;102458.03;;;23.05;100.00
23733;BME280;12047;53.450;-2.286;2023-05-19T15:52:45;102478.97;;;22.72;100.00
23733;BME280;12047;53.450;-2.286;2023-05-19T15:57:46;102477.41;;;22.30;100.00
23733;BME280;12047;53.450;-2.286;2023-05-19T16:02:46;102480.13;;;21.82;100.00
23733;BME280;12047;53.450;-2.286;2023-05-19T16:07:48;102480.66;;;21.53;100.00
23733;BME280;12047;53.450;-2.286;2023-05-19T16:12:49;102483.84;;;21.72;100.00
23733;BME280;12047;53.450;-2.286;2023-05-19T16:17:50;102484.19;;;21.86;100.00
23733;BME280;12047;53.450;-2.286;2023-05-19T16:22:55;102491.06;;;22.37;100.00
23733;BME280;12047;53.450;-2.286;2023-05-19T16:28:06;102495.97;;;21.44;100.00
23733;BME280;12047;53.450;-2.286;2023-05-19T16:33:07;102481.50;;;21.78;100.00
23733;BME280;12047;53.450;-2.286;2023-05-19T16:38:07;102490.25;;;21.80;100.00
23733;BME280;12047;53.450;-2.286;2023-05-19T16:43:08;102486.53;;;21.64;100.00
23733;BME280;12047;53.450;-2.286;2023-05-19T16:48:09;102489.41;;;21.63;100.00
23733;BME280;12047;53.450;-2.286;2023-05-19T16:53:10;102488.91;;;22.16;100.00
23733;BME280;12047;53.450;-2.286;2023-05-19T16:58:10;102490.06;;;21.81;100.00
23733;BME280;12047;53.450;-2.286;2023-05-19T17:03:25;102492.28;;;22.10;100.00
23733;BME280;12047;53.450;-2.286;2023-05-19T17:08:43;102495.41;;;23.01;100.00
23733;BME280;12047;53.450;-2.286;2023-05-19T17:14:02;102491.03;;;23.00;100.00
23733;BME280;12047;53.450;-2.286;2023-05-19T17:19:36;102492.94;;;22.92;100.00
23733;BME280;12047;53.450;-2.286;2023-05-19T17:30:15;102496.28;;;22.47;100.00
23733;BME280;12047;53.450;-2.286;2023-05-19T17:35:15;102497.19;;;22.23;100.00
23733;BME280;12047;53.450;-2.286;2023-05-19T17:40:16;102490.09;;;22.22;100.00
23733;BME280;12047;53.450;-2.286;2023-05-19T17:45:17;102493.44;;;22.87;100.00
23733;BME280;12047;53.450;-2.286;2023-05-19T17:50:17;102498.94;;;23.02;100.00
23733;BME280;12047;53.450;-2.286;2023-05-19T17:55:18;102502.13;;;22.58;100.00
23733;BME280;12047;53.450;-2.286;2023-05-19T18:00:19;102506.59;;;22.35;100.00
23733;BME280;12047;53.450;-2.286;2023-05-19T18:05:20;102507.44;;;21.62;100.00
23733;BME280;12047;53.450;-2.286;2023-05-19T18:10:21;102501.22;;;22.02;100.00
23733;BME280;12047;53.450;-2.286;2023-05-19T18:15:23;102510.84;;;21.72;100.00
23733;BME280;12047;53.450;-2.286;2023-05-19T18:20:24;102525.53;;;22.27;100.00
23733;BME280;12047;53.450;-2.286;2023-05-19T18:25:24;102532.56;;;21.63;100.00
23733;BME280;12047;53.450;-2.286;2023-05-19T18:30:25;102541.03;;;21.76;100.00
23733;BME280;12047;53.450;-2.286;2023-05-19T18:35:25;102533.59;;;21.12;100.00
23733;BME280;12047;53.450;-2.286;2023-05-19T18:40:26;102560.59;;;21.86;100.00
23733;BME280;12047;53.450;-2.286;2023-05-19T18:45:35;102555.53;;;22.40;100.00
23733;BME280;12047;53.450;-2.286;2023-05-19T18:50:38;102564.25;;;21.53;100.00
23733;BME280;12047;53.450;-2.286;2023-05-19T18:55:40;102561.44;;;21.87;100.00
23733;BME280;12047;53.450;-2.286;2023-05-19T19:00:40;102562.44;;;21.86;100.00
23733;BME280;12047;53.450;-2.286;2023-05-19T19:05:41;102563.66;;;22.16;100.00
23733;BME280;12047;53.450;-2.286;2023-05-19T19:10:41;102570.81;;;21.08;100.00
23733;BME280;12047;53.450;-2.286;2023-05-19T19:15:42;102565.81;;;21.71;100.00
23733;BME280;12047;53.450;-2.286;2023-05-19T19:20:42;102564.47;;;21.76;100.00
23733;BME280;12047;53.450;-2.286;2023-05-19T19:25:44;102568.19;;;22.31;100.00
23733;BME280;12047;53.450;-2.286;2023-05-19T19:30:45;102580.53;;;22.18;100.00
23733;BME280;12047;53.450;-2.286;2023-05-19T19:35:46;102582.69;;;21.73;100.00
23733;BME280;12047;53.450;-2.286;2023-05-19T19:40:49;102582.03;;;22.28;100.00
23733;BME280;12047;53.450;-2.286;2023-05-19T19:45:58;102581.34;;;21.86;100.00
23733;BME280;12047;53.450;-2.286;2023-05-19T19:50:59;102584.72;;;21.88;100.00
23733;BME280;12047;53.450;-2.286;2023-05-19T19:56:01;102589.16;;;22.13;100.00
23733;BME280;12047;53.450;-2.286;2023-05-19T20:01:03;102591.16;;;22.03;100.00
23733;BME280;12047;53.450;-2.286;2023-05-19T20:06:05;102593.09;;;21.60;100.00
23733;BME280;12047;53.450;-2.286;2023-05-19T20:11:06;102592.16;;;21.94;100.00
23733;BME280;12047;53.450;-2.286;2023-05-19T20:16:06;102610.03;;;21.95;100.00
23733;BME280;12047;53.450;-2.286;2023-05-19T20:21:07;102606.75;;;21.59;100.00
23733;BME280;12047;53.450;-2.286;2023-05-19T20:26:08;102613.81;;;21.18;100.00
23733;BME280;12047;53.450;-2.286;2023-05-19T20:31:11;102616.22;;;19.90;100.00
23733;BME280;12047;53.450;-2.286;2023-05-19T20:36:16;102608.84;;;20.27;100.00
23733;BME280;12047;53.450;-2.286;2023-05-19T20:41:17;102615.75;;;19.94;100.00
23733;BME280;12047;53.450;-2.286;2023-05-19T20:46:28;102616.63;;;19.77;100.00
23733;BME280;12047;53.450;-2.286;2023-05-19T20:51:29;102623.44;;;19.72;100.00
23733;BME280;12047;53.450;-2.286;2023-05-19T20:56:35;102621.00;;;20.14;100.00
23733;BME280;12047;53.450;-2.286;2023-05-19T21:01:38;102632.13;;;19.83;100.00
23733;BME280;12047;53.450;-2.286;2023-05-19T21:06:39;102635.78;;;19.64;100.00
23733;BME280;12047;53.450;-2.286;2023-05-19T21:12:21;102644.03;;;19.26;100.00
23733;BME280;12047;53.450;-2.286;2023-05-19T21:17:25;102646.91;;;19.42;100.00
23733;BME280;12047;53.450;-2.286;2023-05-19T21:22:32;102647.81;;;19.33;100.00
23733;BME280;12047;53.450;-2.286;2023-05-19T21:27:47;102662.97;;;19.61;100.00
23733;BME280;12047;53.450;-2.286;2023-05-19T21:32:50;102659.06;;;19.19;100.00
23733;BME280;12047;53.450;-2.286;2023-05-19T21:37:52;102666.03;;;19.02;100.00
23733;BME280;12047;53.450;-2.286;2023-05-19T21:43:24;102663.44;;;19.20;100.00
23733;BME280;12047;53.450;-2.286;2023-05-19T21:48:27;102667.06;;;18.91;100.00
23733;BME280;12047;53.450;-2.286;2023-05-19T21:53:31;102669.03;;;18.99;100.00
23733;BME280;12047;53.450;-2.286;2023-05-19T21:58:40;102671.00;;;18.97;100.00
23733;BME280;12047;53.450;-2.286;2023-05-19T22:15:37;102689.53;;;20.55;100.00
23733;BME280;12047;53.450;-2.286;2023-05-19T22:21:08;102683.78;;;20.50;100.00
23733;BME280;12047;53.450;-2.286;2023-05-19T22:44:51;102689.28;;;20.13;100.00
23733;BME280;12047;53.450;-2.286;2023-05-19T22:51:00;102693.38;;;18.68;100.00
23733;BME280;12047;53.450;-2.286;2023-05-19T22:56:23;102690.56;;;18.51;100.00
23733;BME280;12047;53.450;-2.286;2023-05-19T23:01:44;102689.81;;;18.58;100.00
23733;BME280;12047;53.450;-2.286;2023-05-19T23:07:03;102686.31;;;18.67;100.00
23733;BME280;12047;53.450;-2.286;2023-05-19T23:12:15;102679.22;;;18.38;100.00
23733;BME280;12047;53.450;-2.286;2023-05-19T23:17:29;102680.94;;;18.19;100.00
23733;BME280;12047;53.450;-2.286;2023-05-19T23:23:21;102674.44;;;18.60;100.00
23733;BME280;12047;53.450;-2.286;2023-05-19T23:28:58;102681.81;;;18.29;100.00
23733;BME280;12047;53.450;-2.286;2023-05-19T23:40:40;102682.34;;;18.14;100.00
23733;BME280;12047;53.450;-2.286;2023-05-19T23:45:43;102680.06;;;17.99;100.00
23733;BME280;12047;53.450;-2.286;2023-05-19T23:50:44;102684.75;;;18.26;100.00
23733;BME280;12047;53.450;-2.286;2023-05-19T23:55:45;102677.09;;;17.93;100.00
